sensor_id;sensor_type;location;lat;lon;timestamp;pressure;altitude;pressure_sealevel;temperature;humidity
36328;BME280;22354;50.012;8.264;2022-07-29T00:00:18;100471.97;;;22.78;100.00
36328;BME280;22354;50.012;8.264;2022-07-29T00:02:43;100480.94;;;22.85;100.00
36328;BME280;22354;50.012;8.264;2022-07-29T00:05:09;100475.47;;;22.85;100.00
36328;BME280;22354;50.012;8.264;2022-07-29T00:07:35;100470.00;;;22.85;100.00
36328;BME280;22354;50.012;8.264;2022-07-29T00:10:00;100473.66;;;22.79;100.00
36328;BME280;22354;50.012;8.264;2022-07-29T00:12:25;100470.94;;;22.61;100.00
36328;BME280;22354;50.012;8.264;2022-07-29T00:14:51;100470.06;;;22.49;100.00
36328;BME280;22354;50.012;8.264;2022-07-29T00:17:17;100465.91;;;22.46;100.00
36328;BME280;22354;50.012;8.264;2022-07-29T00:19:42;100464.31;;;22.38;100.00
36328;BME280;22354;50.012;8.264;2022-07-29T00:22:08;100475.88;;;22.22;100.00
36328;BME280;22354;50.012;8.264;2022-07-29T00:24:33;100468.00;;;22.14;100.00
36328;BME280;22354;50.012;8.264;2022-07-29T00:26:58;100466.75;;;21.92;100.00
36328;BME280;22354;50.012;8.264;2022-07-29T00:29:24;100465.63;;;21.81;100.00
36328;BME280;22354;50.012;8.264;2022-07-29T00:31:50;100458.72;;;21.78;100.00
36328;BME280;22354;50.012;8.264;2022-07-29T00:34:15;100462.34;;;21.72;100.00
36328;BME280;22354;50.012;8.264;2022-07-29T00:36:59;100463.84;;;21.68;100.00
36328;BME280;22354;50.012;8.264;2022-07-29T00:39:24;100457.19;;;21.64;100.00
36328;BME280;22354;50.012;8.264;2022-07-29T00:41:50;100457.03;;;21.59;100.00
36328;BME280;22354;50.012;8.264;2022-07-29T00:44:15;100463.75;;;21.57;100.00
36328;BME280;22354;50.012;8.264;2022-07-29T00:46:40;100452.84;;;21.57;100.00
36328;BME280;22354;50.012;8.264;2022-07-29T00:49:06;100461.41;;;21.60;100.00
36328;BME280;22354;50.012;8.264;2022-07-29T00:51:36;100452.72;;;21.52;100.00
36328;BME280;22354;50.012;8.264;2022-07-29T00:54:02;100462.00;;;21.44;100.00
36328;BME280;22354;50.012;8.264;2022-07-29T00:56:30;100449.16;;;21.69;100.00
36328;BME280;22354;50.012;8.264;2022-07-29T00:58:56;100460.56;;;21.41;100.00
36328;BME280;22354;50.012;8.264;2022-07-29T01:01:22;100451.53;;;21.41;100.00
36328;BME280;22354;50.012;8.264;2022-07-29T01:03:47;100437.56;;;21.56;100.00
36328;BME280;22354;50.012;8.264;2022-07-29T01:06:12;100438.41;;;21.56;100.00
36328;BME280;22354;50.012;8.264;2022-07-29T01:08:38;100433.25;;;21.66;100.00
36328;BME280;22354;50.012;8.264;2022-07-29T01:14:26;100441.53;;;21.35;100.00
36328;BME280;22354;50.012;8.264;2022-07-29T01:16:58;100459.72;;;21.09;100.00
36328;BME280;22354;50.012;8.264;2022-07-29T01:19:51;100469.63;;;21.04;100.00
36328;BME280;22354;50.012;8.264;2022-07-29T01:22:46;100470.50;;;20.66;100.00
36328;BME280;22354;50.012;8.264;2022-07-29T01:25:30;100466.06;;;20.27;100.00
36328;BME280;22354;50.012;8.264;2022-07-29T01:30:25;100448.28;;;19.73;100.00
36328;BME280;22354;50.012;8.264;2022-07-29T01:32:58;100453.72;;;19.73;100.00
36328;BME280;22354;50.012;8.264;2022-07-29T01:35:30;100451.59;;;19.75;100.00
36328;BME280;22354;50.012;8.264;2022-07-29T01:38:17;100458.31;;;19.72;100.00
36328;BME280;22354;50.012;8.264;2022-07-29T01:40:49;100456.63;;;19.52;100.00
36328;BME280;22354;50.012;8.264;2022-07-29T01:43:19;100447.06;;;19.42;100.00
36328;BME280;22354;50.012;8.264;2022-07-29T01:45:51;100437.00;;;19.50;100.00
36328;BME280;22354;50.012;8.264;2022-07-29T01:48:22;100441.16;;;19.52;100.00
36328;BME280;22354;50.012;8.264;2022-07-29T01:50:52;100431.78;;;19.48;100.00
36328;BME280;22354;50.012;8.264;2022-07-29T01:53:26;100423.22;;;19.38;100.00
36328;BME280;22354;50.012;8.264;2022-07-29T01:55:55;100432.00;;;19.53;100.00
36328;BME280;22354;50.012;8.264;2022-07-29T01:58:22;100425.91;;;19.51;100.00
36328;BME280;22354;50.012;8.264;2022-07-29T02:00:50;100425.06;;;19.51;100.00
36328;BME280;22354;50.012;8.264;2022-07-29T02:03:17;100434.94;;;19.58;100.00
36328;BME280;22354;50.012;8.264;2022-07-29T02:05:45;100443.25;;;19.50;100.00
36328;BME280;22354;50.012;8.264;2022-07-29T02:08:13;100439.75;;;19.23;100.00
36328;BME280;22354;50.012;8.264;2022-07-29T02:10:40;100435.34;;;18.82;100.00
36328;BME280;22354;50.012;8.264;2022-07-29T02:13:09;100417.81;;;18.85;100.00
36328;BME280;22354;50.012;8.264;2022-07-29T02:15:36;100407.78;;;18.99;100.00
36328;BME280;22354;50.012;8.264;2022-07-29T02:18:09;100394.63;;;18.82;100.00
36328;BME280;22354;50.012;8.264;2022-07-29T02:20:38;100395.69;;;18.88;100.00
36328;BME280;22354;50.012;8.264;2022-07-29T02:23:04;100400.69;;;18.84;100.00
36328;BME280;22354;50.012;8.264;2022-07-29T02:25:30;100398.81;;;18.85;100.00
36328;BME280;22354;50.012;8.264;2022-07-29T02:27:56;100406.13;;;18.78;100.00
36328;BME280;22354;50.012;8.264;2022-07-29T02:30:25;100419.47;;;18.86;100.00
36328;BME280;22354;50.012;8.264;2022-07-29T02:32:52;100408.00;;;18.77;100.00
36328;BME280;22354;50.012;8.264;2022-07-29T02:35:19;100401.09;;;18.68;100.00
36328;BME280;22354;50.012;8.264;2022-07-29T02:37:46;100410.00;;;18.55;100.00
36328;BME280;22354;50.012;8.264;2022-07-29T02:40:34;100402.72;;;18.49;100.00
36328;BME280;22354;50.012;8.264;2022-07-29T02:43:03;100405.59;;;18.41;100.00
36328;BME280;22354;50.012;8.264;2022-07-29T02:45:30;100405.19;;;18.38;100.00
36328;BME280;22354;50.012;8.264;2022-07-29T02:47:57;100404.56;;;18.42;100.00
36328;BME280;22354;50.012;8.264;2022-07-29T02:50:37;100400.59;;;18.45;100.00
36328;BME280;22354;50.012;8.264;2022-07-29T02:55:56;100397.69;;;18.53;100.00
36328;BME280;22354;50.012;8.264;2022-07-29T02:58:25;100399.38;;;18.54;100.00
36328;BME280;22354;50.012;8.264;2022-07-29T03:00:55;100398.50;;;18.47;100.00
36328;BME280;22354;50.012;8.264;2022-07-29T03:03:25;100401.81;;;18.36;100.00
36328;BME280;22354;50.012;8.264;2022-07-29T03:05:57;100398.47;;;18.34;100.00
36328;BME280;22354;50.012;8.264;2022-07-29T03:08:25;100387.63;;;18.34;100.00
36328;BME280;22354;50.012;8.264;2022-07-29T03:10:52;100390.56;;;18.25;100.00
36328;BME280;22354;50.012;8.264;2022-07-29T03:13:18;100388.44;;;18.21;100.00
36328;BME280;22354;50.012;8.264;2022-07-29T03:15:44;100381.34;;;18.20;100.00
36328;BME280;22354;50.012;8.264;2022-07-29T03:18:10;100388.03;;;18.24;100.00
36328;BME280;22354;50.012;8.264;2022-07-29T03:20:37;100388.03;;;18.31;100.00
36328;BME280;22354;50.012;8.264;2022-07-29T03:23:03;100386.81;;;18.40;100.00
36328;BME280;22354;50.012;8.264;2022-07-29T03:25:29;100392.00;;;18.35;100.00
36328;BME280;22354;50.012;8.264;2022-07-29T03:27:55;100396.81;;;18.33;100.00
36328;BME280;22354;50.012;8.264;2022-07-29T03:30:21;100391.59;;;18.24;100.00
36328;BME280;22354;50.012;8.264;2022-07-29T03:32:46;100392.16;;;18.07;100.00
36328;BME280;22354;50.012;8.264;2022-07-29T03:35:12;100396.88;;;17.85;100.00
36328;BME280;22354;50.012;8.264;2022-07-29T03:37:37;100397.09;;;17.90;100.00
36328;BME280;22354;50.012;8.264;2022-07-29T03:40:05;100394.38;;;17.90;100.00
36328;BME280;22354;50.012;8.264;2022-07-29T03:42:33;100391.66;;;17.90;100.00
36328;BME280;22354;50.012;8.264;2022-07-29T03:45:05;100392.53;;;17.97;100.00
36328;BME280;22354;50.012;8.264;2022-07-29T03:47:33;100391.88;;;17.95;100.00
36328;BME280;22354;50.012;8.264;2022-07-29T03:50:05;100393.38;;;17.97;100.00
36328;BME280;22354;50.012;8.264;2022-07-29T03:52:30;100386.47;;;17.95;100.00
36328;BME280;22354;50.012;8.264;2022-07-29T03:54:56;100391.56;;;18.11;100.00
36328;BME280;22354;50.012;8.264;2022-07-29T03:57:25;100397.19;;;18.16;100.00
36328;BME280;22354;50.012;8.264;2022-07-29T03:59:52;100395.16;;;18.32;100.00
36328;BME280;22354;50.012;8.264;2022-07-29T04:02:18;100402.22;;;18.26;100.00
36328;BME280;22354;50.012;8.264;2022-07-29T04:04:44;100396.41;;;18.29;100.00
36328;BME280;22354;50.012;8.264;2022-07-29T04:07:14;100399.75;;;18.44;100.00
36328;BME280;22354;50.012;8.264;2022-07-29T04:09:40;100403.13;;;18.53;100.00
36328;BME280;22354;50.012;8.264;2022-07-29T04:12:06;100402.88;;;18.35;100.00
36328;BME280;22354;50.012;8.264;2022-07-29T04:14:32;100415.13;;;18.17;100.00
36328;BME280;22354;50.012;8.264;2022-07-29T04:16:57;100410.63;;;18.38;100.00
36328;BME280;22354;50.012;8.264;2022-07-29T04:19:23;100413.13;;;18.39;100.00
36328;BME280;22354;50.012;8.264;2022-07-29T04:21:48;100419.34;;;18.26;100.00
36328;BME280;22354;50.012;8.264;2022-07-29T04:24:13;100422.16;;;18.05;100.00
36328;BME280;22354;50.012;8.264;2022-07-29T04:26:38;100430.13;;;18.13;100.00
36328;BME280;22354;50.012;8.264;2022-07-29T04:29:04;100427.00;;;18.16;100.00
36328;BME280;22354;50.012;8.264;2022-07-29T04:31:29;100430.19;;;18.26;100.00
36328;BME280;22354;50.012;8.264;2022-07-29T04:33:54;100434.38;;;18.36;100.00
36328;BME280;22354;50.012;8.264;2022-07-29T04:36:20;100434.38;;;18.36;100.00
36328;BME280;22354;50.012;8.264;2022-07-29T04:38:45;100436.50;;;18.40;100.00
36328;BME280;22354;50.012;8.264;2022-07-29T04:41:10;100444.41;;;18.42;100.00
36328;BME280;22354;50.012;8.264;2022-07-29T04:43:36;100428.78;;;18.57;100.00
36328;BME280;22354;50.012;8.264;2022-07-29T04:46:06;100437.78;;;18.57;100.00
36328;BME280;22354;50.012;8.264;2022-07-29T04:48:32;100438.69;;;18.78;100.00
36328;BME280;22354;50.012;8.264;2022-07-29T04:50:57;100438.25;;;18.74;100.00
36328;BME280;22354;50.012;8.264;2022-07-29T04:53:23;100432.00;;;18.67;100.00
36328;BME280;22354;50.012;8.264;2022-07-29T04:55:48;100427.75;;;18.58;100.00
36328;BME280;22354;50.012;8.264;2022-07-29T04:58:14;100438.69;;;18.78;100.00
36328;BME280;22354;50.012;8.264;2022-07-29T05:00:39;100426.91;;;18.51;100.00
36328;BME280;22354;50.012;8.264;2022-07-29T05:03:05;100423.84;;;18.67;100.00
36328;BME280;22354;50.012;8.264;2022-07-29T05:05:31;100433.25;;;18.71;100.00
36328;BME280;22354;50.012;8.264;2022-07-29T05:07:56;100432.41;;;18.64;100.00
36328;BME280;22354;50.012;8.264;2022-07-29T05:10:22;100433.66;;;18.68;100.00
36328;BME280;22354;50.012;8.264;2022-07-29T05:12:47;100428.25;;;18.81;100.00
36328;BME280;22354;50.012;8.264;2022-07-29T05:15:13;100447.28;;;18.88;100.00
36328;BME280;22354;50.012;8.264;2022-07-29T05:17:38;100442.44;;;18.83;100.00
36328;BME280;22354;50.012;8.264;2022-07-29T05:20:04;100437.19;;;18.69;100.00
36328;BME280;22354;50.012;8.264;2022-07-29T05:22:30;100442.84;;;18.80;100.00
36328;BME280;22354;50.012;8.264;2022-07-29T05:24:55;100440.78;;;18.96;100.00
36328;BME280;22354;50.012;8.264;2022-07-29T05:27:20;100444.53;;;18.95;100.00
36328;BME280;22354;50.012;8.264;2022-07-29T05:29:46;100439.13;;;19.21;100.00
36328;BME280;22354;50.012;8.264;2022-07-29T05:32:12;100441.19;;;19.12;100.00
36328;BME280;22354;50.012;8.264;2022-07-29T05:34:37;100445.41;;;19.02;100.00
36328;BME280;22354;50.012;8.264;2022-07-29T05:37:03;100436.59;;;19.00;100.00
36328;BME280;22354;50.012;8.264;2022-07-29T05:39:28;100440.34;;;18.99;100.00
36328;BME280;22354;50.012;8.264;2022-07-29T05:41:54;100435.56;;;19.07;100.00
36328;BME280;22354;50.012;8.264;2022-07-29T05:44:19;100443.91;;;19.32;100.00
36328;BME280;22354;50.012;8.264;2022-07-29T05:46:44;100446.00;;;19.37;100.00
36328;BME280;22354;50.012;8.264;2022-07-29T05:49:09;100441.19;;;19.26;100.00
36328;BME280;22354;50.012;8.264;2022-07-29T05:51:35;100449.56;;;19.24;100.00
36328;BME280;22354;50.012;8.264;2022-07-29T05:54:01;100447.69;;;19.25;100.00
36328;BME280;22354;50.012;8.264;2022-07-29T05:56:27;100444.75;;;19.33;100.00
36328;BME280;22354;50.012;8.264;2022-07-29T05:58:52;100448.28;;;19.53;100.00
36328;BME280;22354;50.012;8.264;2022-07-29T06:01:18;100449.31;;;19.52;100.00
36328;BME280;22354;50.012;8.264;2022-07-29T06:03:43;100455.38;;;19.81;100.00
36328;BME280;22354;50.012;8.264;2022-07-29T06:06:09;100460.00;;;19.67;100.00
36328;BME280;22354;50.012;8.264;2022-07-29T06:08:36;100449.91;;;19.94;100.00
36328;BME280;22354;50.012;8.264;2022-07-29T06:11:03;100459.53;;;19.83;100.00
36328;BME280;22354;50.012;8.264;2022-07-29T06:13:30;100461.63;;;19.94;100.00
36328;BME280;22354;50.012;8.264;2022-07-29T06:15:55;100454.91;;;19.90;100.00
36328;BME280;22354;50.012;8.264;2022-07-29T06:18:21;100445.44;;;20.13;100.00
36328;BME280;22354;50.012;8.264;2022-07-29T06:20:51;100452.28;;;20.22;100.00
36328;BME280;22354;50.012;8.264;2022-07-29T06:23:18;100455.97;;;20.41;100.00
36328;BME280;22354;50.012;8.264;2022-07-29T06:25:43;100453.75;;;21.01;100.00
36328;BME280;22354;50.012;8.264;2022-07-29T06:28:09;100456.53;;;21.19;100.00
36328;BME280;22354;50.012;8.264;2022-07-29T06:30:34;100446.31;;;21.14;100.00
36328;BME280;22354;50.012;8.264;2022-07-29T06:33:01;100449.31;;;21.31;100.00
36328;BME280;22354;50.012;8.264;2022-07-29T06:35:27;100443.91;;;21.25;100.00
36328;BME280;22354;50.012;8.264;2022-07-29T06:37:52;100449.91;;;21.08;100.00
36328;BME280;22354;50.012;8.264;2022-07-29T06:40:18;100445.47;;;21.14;100.00
36328;BME280;22354;50.012;8.264;2022-07-29T06:43:02;100441.41;;;20.98;100.00
36328;BME280;22354;50.012;8.264;2022-07-29T06:48:49;100444.78;;;21.25;100.00
36328;BME280;22354;50.012;8.264;2022-07-29T06:51:15;100438.25;;;21.69;100.00
36328;BME280;22354;50.012;8.264;2022-07-29T06:53:41;100450.81;;;21.70;100.00
36328;BME280;22354;50.012;8.264;2022-07-29T06:56:08;100449.16;;;21.69;100.00
36328;BME280;22354;50.012;8.264;2022-07-29T06:58:34;100449.31;;;21.56;100.00
36328;BME280;22354;50.012;8.264;2022-07-29T07:01:02;100454.47;;;21.64;100.00
36328;BME280;22354;50.012;8.264;2022-07-29T07:03:28;100453.88;;;21.62;100.00
36328;BME280;22354;50.012;8.264;2022-07-29T07:05:54;100456.88;;;21.72;100.00
36328;BME280;22354;50.012;8.264;2022-07-29T07:08:20;100465.31;;;21.89;100.00
36328;BME280;22354;50.012;8.264;2022-07-29T07:10:47;100455.84;;;21.92;100.00
36328;BME280;22354;50.012;8.264;2022-07-29T07:13:12;100458.03;;;21.83;100.00
36328;BME280;22354;50.012;8.264;2022-07-29T07:15:38;100459.25;;;21.87;100.00
36328;BME280;22354;50.012;8.264;2022-07-29T07:18:05;100457.88;;;21.78;100.00
36328;BME280;22354;50.012;8.264;2022-07-29T07:20:31;100462.06;;;21.81;100.00
36328;BME280;22354;50.012;8.264;2022-07-29T07:22:57;100469.91;;;22.14;100.00
36328;BME280;22354;50.012;8.264;2022-07-29T07:25:22;100470.09;;;22.12;100.00
36328;BME280;22354;50.012;8.264;2022-07-29T07:27:48;100473.13;;;22.04;100.00
36328;BME280;22354;50.012;8.264;2022-07-29T07:30:14;100474.19;;;22.03;100.00
36328;BME280;22354;50.012;8.264;2022-07-29T07:32:39;100472.06;;;22.23;100.00
36328;BME280;22354;50.012;8.264;2022-07-29T07:35:06;100475.72;;;22.17;100.00
36328;BME280;22354;50.012;8.264;2022-07-29T07:37:33;100473.00;;;22.17;100.00
36328;BME280;22354;50.012;8.264;2022-07-29T07:39:59;100481.78;;;22.19;100.00
36328;BME280;22354;50.012;8.264;2022-07-29T07:42:25;100479.78;;;22.26;100.00
36328;BME280;22354;50.012;8.264;2022-07-29T07:44:50;100473.31;;;22.27;100.00
36328;BME280;22354;50.012;8.264;2022-07-29T07:47:16;100469.00;;;22.50;100.00
36328;BME280;22354;50.012;8.264;2022-07-29T07:49:49;100466.56;;;22.60;100.00
36328;BME280;22354;50.012;8.264;2022-07-29T07:52:16;100462.75;;;22.61;100.00
36328;BME280;22354;50.012;8.264;2022-07-29T07:54:41;100469.22;;;22.66;100.00
36328;BME280;22354;50.012;8.264;2022-07-29T07:57:08;100457.56;;;22.71;100.00
36328;BME280;22354;50.012;8.264;2022-07-29T07:59:34;100462.09;;;22.77;100.00
36328;BME280;22354;50.012;8.264;2022-07-29T08:01:59;100464.63;;;22.79;100.00
36328;BME280;22354;50.012;8.264;2022-07-29T08:04:26;100461.28;;;23.07;100.00
36328;BME280;22354;50.012;8.264;2022-07-29T08:06:52;100463.38;;;23.05;100.00
36328;BME280;22354;50.012;8.264;2022-07-29T08:09:23;100463.84;;;23.02;100.00
36328;BME280;22354;50.012;8.264;2022-07-29T08:11:50;100462.41;;;22.87;100.00
36328;BME280;22354;50.012;8.264;2022-07-29T08:14:16;100465.47;;;22.79;100.00
36328;BME280;22354;50.012;8.264;2022-07-29T08:16:41;100467.03;;;22.87;100.00
36328;BME280;22354;50.012;8.264;2022-07-29T08:19:08;100464.13;;;23.12;100.00
36328;BME280;22354;50.012;8.264;2022-07-29T08:21:33;100464.84;;;23.31;100.00
36328;BME280;22354;50.012;8.264;2022-07-29T08:23:58;100475.22;;;23.40;100.00
36328;BME280;22354;50.012;8.264;2022-07-29T08:26:43;100467.50;;;23.37;100.00
36328;BME280;22354;50.012;8.264;2022-07-29T08:29:08;100467.63;;;23.66;100.00
36328;BME280;22354;50.012;8.264;2022-07-29T08:31:34;100470.59;;;23.52;100.00
36328;BME280;22354;50.012;8.264;2022-07-29T08:34:00;100472.88;;;23.67;100.00
36328;BME280;22354;50.012;8.264;2022-07-29T08:36:26;100469.44;;;23.60;100.00
36328;BME280;22354;50.012;8.264;2022-07-29T08:38:51;100471.06;;;23.49;100.00
36328;BME280;22354;50.012;8.264;2022-07-29T08:41:19;100467.53;;;23.61;100.00
36328;BME280;22354;50.012;8.264;2022-07-29T08:43:45;100473.34;;;23.76;100.00
36328;BME280;22354;50.012;8.264;2022-07-29T08:46:11;100474.53;;;23.80;100.00
36328;BME280;22354;50.012;8.264;2022-07-29T08:48:36;100478.75;;;24.23;100.00
36328;BME280;22354;50.012;8.264;2022-07-29T08:51:02;100478.56;;;24.01;100.00
36328;BME280;22354;50.012;8.264;2022-07-29T08:53:28;100483.19;;;24.00;100.00
36328;BME280;22354;50.012;8.264;2022-07-29T08:55:54;100479.03;;;24.09;100.00
36328;BME280;22354;50.012;8.264;2022-07-29T08:58:20;100478.28;;;24.14;100.00
36328;BME280;22354;50.012;8.264;2022-07-29T09:00:52;100471.28;;;23.95;100.00
36328;BME280;22354;50.012;8.264;2022-07-29T09:03:20;100475.56;;;24.14;100.00
36328;BME280;22354;50.012;8.264;2022-07-29T09:05:46;100475.63;;;24.42;100.00
36328;BME280;22354;50.012;8.264;2022-07-29T09:08:13;100473.16;;;24.18;100.00
36328;BME280;22354;50.012;8.264;2022-07-29T09:10:39;100468.13;;;24.38;100.00
36328;BME280;22354;50.012;8.264;2022-07-29T09:13:05;100474.88;;;24.47;100.00
36328;BME280;22354;50.012;8.264;2022-07-29T09:15:31;100469.06;;;24.44;100.00
36328;BME280;22354;50.012;8.264;2022-07-29T09:17:57;100463.28;;;24.85;100.00
36328;BME280;22354;50.012;8.264;2022-07-29T09:20:26;100471.38;;;24.63;100.00
36328;BME280;22354;50.012;8.264;2022-07-29T09:23:12;100463.72;;;24.94;100.00
36328;BME280;22354;50.012;8.264;2022-07-29T09:25:42;100459.84;;;25.07;100.00
36328;BME280;22354;50.012;8.264;2022-07-29T09:28:12;100456.28;;;25.23;100.00
36328;BME280;22354;50.012;8.264;2022-07-29T09:30:55;100462.81;;;25.39;100.00
36328;BME280;22354;50.012;8.264;2022-07-29T09:33:23;100457.03;;;25.18;100.00
36328;BME280;22354;50.012;8.264;2022-07-29T09:36:06;100456.34;;;25.11;100.00
36328;BME280;22354;50.012;8.264;2022-07-29T09:38:32;100457.09;;;25.07;100.00
36328;BME280;22354;50.012;8.264;2022-07-29T09:41:00;100449.72;;;25.07;100.00
36328;BME280;22354;50.012;8.264;2022-07-29T09:43:26;100457.53;;;25.15;100.00
36328;BME280;22354;50.012;8.264;2022-07-29T09:45:52;100450.06;;;25.27;100.00
36328;BME280;22354;50.012;8.264;2022-07-29T09:48:23;100446.41;;;25.05;100.00
36328;BME280;22354;50.012;8.264;2022-07-29T09:50:49;100449.88;;;25.01;100.00
36328;BME280;22354;50.012;8.264;2022-07-29T09:53:35;100456.50;;;24.88;100.00
36328;BME280;22354;50.012;8.264;2022-07-29T09:56:01;100453.56;;;24.94;100.00
36328;BME280;22354;50.012;8.264;2022-07-29T09:58:27;100452.19;;;25.25;100.00
36328;BME280;22354;50.012;8.264;2022-07-29T10:00:53;100448.88;;;25.23;100.00
36328;BME280;22354;50.012;8.264;2022-07-29T10:03:20;100444.81;;;25.09;100.00
36328;BME280;22354;50.012;8.264;2022-07-29T10:06:06;100444.56;;;25.27;100.00
36328;BME280;22354;50.012;8.264;2022-07-29T10:08:32;100448.38;;;25.43;100.00
36328;BME280;22354;50.012;8.264;2022-07-29T10:11:14;100443.78;;;25.82;100.00
36328;BME280;22354;50.012;8.264;2022-07-29T10:13:41;100439.44;;;26.08;100.00
36328;BME280;22354;50.012;8.264;2022-07-29T10:16:06;100445.13;;;26.45;100.00
36328;BME280;22354;50.012;8.264;2022-07-29T10:18:33;100449.84;;;25.84;100.00
36328;BME280;22354;50.012;8.264;2022-07-29T10:20:59;100451.19;;;25.48;100.00
36328;BME280;22354;50.012;8.264;2022-07-29T10:23:30;100447.25;;;25.78;100.00
36328;BME280;22354;50.012;8.264;2022-07-29T10:25:55;100450.84;;;26.00;100.00
36328;BME280;22354;50.012;8.264;2022-07-29T10:28:21;100438.78;;;26.01;100.00
36328;BME280;22354;50.012;8.264;2022-07-29T10:30:49;100439.69;;;26.07;100.00
36328;BME280;22354;50.012;8.264;2022-07-29T10:36:21;100435.72;;;26.41;100.00
36328;BME280;22354;50.012;8.264;2022-07-29T10:39:22;100436.44;;;26.10;100.00
36328;BME280;22354;50.012;8.264;2022-07-29T10:44:44;100429.25;;;26.53;100.00
36328;BME280;22354;50.012;8.264;2022-07-29T10:47:22;100436.56;;;26.42;100.00
36328;BME280;22354;50.012;8.264;2022-07-29T10:50:14;100423.66;;;26.42;100.00
36328;BME280;22354;50.012;8.264;2022-07-29T10:55:34;100417.69;;;26.78;100.00
36328;BME280;22354;50.012;8.264;2022-07-29T10:58:15;100422.63;;;26.49;100.00
36328;BME280;22354;50.012;8.264;2022-07-29T11:00:40;100413.81;;;26.73;100.00
36328;BME280;22354;50.012;8.264;2022-07-29T11:03:06;100421.75;;;26.21;100.00
36328;BME280;22354;50.012;8.264;2022-07-29T11:05:51;100407.75;;;26.44;100.00
36328;BME280;22354;50.012;8.264;2022-07-29T11:08:19;100408.09;;;26.80;100.00
36328;BME280;22354;50.012;8.264;2022-07-29T11:10:49;100404.34;;;26.91;100.00
36328;BME280;22354;50.012;8.264;2022-07-29T11:16:08;100404.50;;;26.48;100.00
36328;BME280;22354;50.012;8.264;2022-07-29T11:18:33;100400.09;;;27.06;100.00
36328;BME280;22354;50.012;8.264;2022-07-29T11:20:58;100392.06;;;27.36;100.00
36328;BME280;22354;50.012;8.264;2022-07-29T11:23:30;100391.34;;;27.51;100.00
36328;BME280;22354;50.012;8.264;2022-07-29T11:34:16;100395.16;;;27.97;100.00
36328;BME280;22354;50.012;8.264;2022-07-29T11:39:38;100390.91;;;28.27;100.00
36328;BME280;22354;50.012;8.264;2022-07-29T11:50:06;100393.03;;;28.25;100.00
36328;BME280;22354;50.012;8.264;2022-07-29T11:52:34;100393.16;;;28.40;100.00
36328;BME280;22354;50.012;8.264;2022-07-29T11:55:05;100392.06;;;28.56;100.00
36328;BME280;22354;50.012;8.264;2022-07-29T11:57:35;100381.59;;;28.73;100.00
36328;BME280;22354;50.012;8.264;2022-07-29T12:00:01;100381.63;;;28.99;100.00
36328;BME280;22354;50.012;8.264;2022-07-29T12:02:41;100368.78;;;29.79;100.00
36328;BME280;22354;50.012;8.264;2022-07-29T12:05:08;100371.66;;;29.44;100.00
36328;BME280;22354;50.012;8.264;2022-07-29T12:07:34;100370.81;;;29.38;100.00
36328;BME280;22354;50.012;8.264;2022-07-29T12:10:00;100373.91;;;29.06;100.00
36328;BME280;22354;50.012;8.264;2022-07-29T12:12:26;100368.38;;;29.11;100.00
36328;BME280;22354;50.012;8.264;2022-07-29T12:14:52;100367.53;;;28.70;100.00
36328;BME280;22354;50.012;8.264;2022-07-29T12:17:32;100359.00;;;29.22;100.00
36328;BME280;22354;50.012;8.264;2022-07-29T12:20:02;100356.78;;;29.14;100.00
36328;BME280;22354;50.012;8.264;2022-07-29T12:24:59;100360.09;;;29.31;100.00
36328;BME280;22354;50.012;8.264;2022-07-29T12:27:25;100350.03;;;30.31;100.00
36328;BME280;22354;50.012;8.264;2022-07-29T12:29:57;100340.91;;;31.03;100.00
36328;BME280;22354;50.012;8.264;2022-07-29T12:32:34;100338.56;;;31.45;100.00
36328;BME280;22354;50.012;8.264;2022-07-29T12:35:03;100345.13;;;30.22;100.00
36328;BME280;22354;50.012;8.264;2022-07-29T12:37:28;100329.00;;;29.80;100.00
36328;BME280;22354;50.012;8.264;2022-07-29T12:39:54;100335.38;;;30.35;100.00
36328;BME280;22354;50.012;8.264;2022-07-29T12:42:19;100339.97;;;30.01;100.00
36328;BME280;22354;50.012;8.264;2022-07-29T12:44:49;100338.94;;;29.86;100.00
36328;BME280;22354;50.012;8.264;2022-07-29T12:47:17;100337.13;;;29.46;100.00
36328;BME280;22354;50.012;8.264;2022-07-29T12:49:43;100330.22;;;29.54;100.00
36328;BME280;22354;50.012;8.264;2022-07-29T12:52:29;100335.13;;;29.67;100.00
36328;BME280;22354;50.012;8.264;2022-07-29T12:54:54;100329.63;;;29.72;100.00
36328;BME280;22354;50.012;8.264;2022-07-29T12:57:20;100328.81;;;30.21;100.00
36328;BME280;22354;50.012;8.264;2022-07-29T13:00:07;100321.31;;;30.27;100.00
36328;BME280;22354;50.012;8.264;2022-07-29T13:02:36;100328.81;;;30.21;100.00
36328;BME280;22354;50.012;8.264;2022-07-29T13:05:02;100316.16;;;30.88;100.00
36328;BME280;22354;50.012;8.264;2022-07-29T13:07:30;100327.69;;;30.27;100.00
36328;BME280;22354;50.012;8.264;2022-07-29T13:10:17;100327.31;;;30.78;100.00
36328;BME280;22354;50.012;8.264;2022-07-29T13:13:10;100343.53;;;29.31;100.00
36328;BME280;22354;50.012;8.264;2022-07-29T13:15:43;100348.22;;;28.49;100.00
36328;BME280;22354;50.012;8.264;2022-07-29T13:20:53;100342.16;;;28.27;100.00
36328;BME280;22354;50.012;8.264;2022-07-29T13:23:18;100338.47;;;28.11;100.00
36328;BME280;22354;50.012;8.264;2022-07-29T13:25:44;100345.38;;;28.19;100.00
36328;BME280;22354;50.012;8.264;2022-07-29T13:28:09;100343.16;;;28.11;100.00
36328;BME280;22354;50.012;8.264;2022-07-29T13:30:36;100362.06;;;27.77;100.00
36328;BME280;22354;50.012;8.264;2022-07-29T13:33:02;100359.56;;;27.28;100.00